Warning: Javascript must be enabled to use all the features on this page!


Page Loading - Please Wait...

Click to hideNews Bulletins

Peak Streamflow for the Nation

USGS 01436000 NEVERSINK RIVER AT NEVERSINK NY

Sullivan County, New York
Hydrologic Unit Code 02040104
Latitude  41°49'12", Longitude  74°38'08" NAD83
Drainage area 92.6  square miles
Gage datum 1,253.99 feet above NAVD88
Output formats
Table
Graph
Tab-separated file
peakfq (watstore) format
Reselect output format
Water
Year
Date Gage
Height
(feet)
Stream-
flow
(cfs)
1942 1941-12-24 8.542,3 14,000
1943 1942-12-30 7.763 4,890
1944 1943-11-09 7.423 5,670
1945 1945-07-15 6.743 5,800
1946 1946-03-09 6.453 5,080
1947 1947-04-06 5.683 3,600
1948 1948-03-22 6.553 6,200
1949 1948-12-30 7.713 7,800
1950 1950-04-04 5.003 3,640
1951 1950-11-25 11.233 22,300
1952 1952-07-10 6.793 10,600
1953 1952-12-11 5.416 8,320
1954 1954-09-24 1.936 72.06
1955 1955-04-15 4.76 1,2506
1956 1956-04-30 6.17 3,7806
1957 1957-02-20 3.92 3076
1958 1958-04-30 4.96 1,5506
1959 1959-04-20 4.32 6356
1960 1960-06-18 4.39 7106
1961 1961-04-25 6.60 3,7906
1962 1961-10-05 3.96 3196
1963 1963-07-07 3.91 2856
1964 1964-08-12 3.90 2786
1965 1965-06-01 3.91 2856
1966 1966-08-12 3.96 3196
1967 1967-06-25 4.12 4436
1968 1968-04-25 5.99 2,9406
1969 1969-05-21 4.62 1,0206
1970 1970-07-10 3.91 2856
1971 1971-05-19 3.74 2146
1972 1972-06-23 8.20 6,1306
1973 1973-06-29 7.41 4,9406
1974 1974-04-14 5.09 1,6806
1975 1975-06-13 4.77 1,2306
1976 1976-08-26 3.24 49.06
1977 1977-04-06 4.38 6986
1978 1978-05-18 4.84 1,3006
1979 1979-03-22 3.65 1526
1980 1980-04-16 3.97 3256
1981 1981-07-10 3.45 91.06
1982 1982-04-20 4.55 9046
1983 1983-04-25 4.89 1,3706
1984 1984-05-30 6.17 3,2106
1985 1985-07-06 3.35 73.06
1986 1986-05-22 4.95 1,5006
1987 1987-04-13 5.04 1,5906
1988 1988-07-17 3.44 94.06
1989 1989-05-18 4.51 8976
1990 1990-05-14 4.98 1,5106
1991 1991-07-23 3.47 1026
1992 1992-08-25 3.46 99.06
1993 1993-04-17 6.85 4,1206
1994 1994-04-16 5.85 2,6506
1995 1995-06-07 3.63 1526
1996 1996-05-01 5.92 2,7906
1997 1997-04-08 4.12 4406
1998 1998-06-14 6.89 4,1806
1999 1998-12-02 3.87 2636
2000 2000-07-16 5.97 3,0806
2001 2001-04-10 5.65 2,6606
2002 2002-07-12 3.59 1386
2003 2003-03-30 5.44 2,3106
2004 2004-09-18 6.64 4,0206
2005 2005-04-03 12.99 12,3006
2006 2006-06-28 9.48 7,8406
2007 2007-04-16 7.68 5,4506
2008 2008-03-09 7.24 4,8506
2009 2009-06-18 5.52 2,4206
2010 2010-03-30 5.77 2,8006
2011 2011-08-28 11.30 10,2006
2012 2012-01-27 5.12 1,9106
2013 2013-06-14 5.65 2,6406
2014 2014-07-16 5.09 1,8006
2015 2015-07-01 4.32 6386
2016 2016-05-14 4.04 3936
2017 2017-04-07 5.37 2,2506
2018 2018-08-18 6.27 3,4006
2019 2019-01-24 6.76 4,0706
2020 2020-04-13 8.19 5,9806
2021 2021-07-18 6.10 3,1706
?
  Peak Gage-Height Qualification Codes.
?
  Peak Streamflow Qualification Codes.